createdAt,value
2023-03-26T00:01:40.582Z,78.87
2023-03-26T00:04:08.667Z,77.24
2023-03-26T00:06:39.844Z,77.49
2023-03-26T00:09:10.298Z,77.80
2023-03-26T00:11:37.992Z,76.47
2023-03-26T00:14:05.835Z,76.87
2023-03-26T00:16:34.492Z,75.22
2023-03-26T00:19:02.914Z,77.52
2023-03-26T00:21:31.657Z,76.00
2023-03-26T00:24:04.661Z,76.09
2023-03-26T00:26:37.850Z,76.59
2023-03-26T00:29:07.035Z,76.48
2023-03-26T00:31:35.166Z,75.68
2023-03-26T00:34:04.045Z,76.17
2023-03-26T00:36:32.280Z,76.45
2023-03-26T00:38:59.854Z,78.45
2023-03-26T00:41:31.146Z,77.15
2023-03-26T00:44:00.552Z,78.40
2023-03-26T00:46:31.343Z,78.13
2023-03-26T00:49:00.174Z,76.44
2023-03-26T00:51:29.292Z,76.75
2023-03-26T00:53:57.278Z,78.94
2023-03-26T00:56:25.390Z,76.88
2023-03-26T00:58:52.771Z,76.99
2023-03-26T01:01:28.636Z,76.94
2023-03-26T01:04:07.584Z,77.27
2023-03-26T01:06:41.626Z,77.37
2023-03-26T01:09:18.994Z,77.07
2023-03-26T01:11:48.351Z,76.94
2023-03-26T01:14:18.959Z,76.40
2023-03-26T01:16:50.238Z,76.74
2023-03-26T01:19:54.631Z,76.89
2023-03-26T01:22:25.108Z,76.60
2023-03-26T01:24:54.195Z,76.87
2023-03-26T01:27:57.424Z,76.65
2023-03-26T01:30:43.357Z,76.87
2023-03-26T01:33:16.475Z,75.68
2023-03-26T01:36:04.628Z,74.79
2023-03-26T01:38:48.354Z,74.89
2023-03-26T01:41:27.254Z,74.09
2023-03-26T01:44:22.114Z,74.47
2023-03-26T01:46:51.560Z,74.67
2023-03-26T01:49:19.771Z,75.43
2023-03-26T01:51:47.985Z,75.29
2023-03-26T01:54:20.144Z,76.40
2023-03-26T01:56:59.164Z,75.37
2023-03-26T01:59:40.840Z,75.81
2023-03-26T02:02:21.958Z,75.16
2023-03-26T02:05:01.746Z,75.95
2023-03-26T02:07:29.228Z,75.11
2023-03-26T02:10:02.522Z,76.82
2023-03-26T02:12:30.798Z,75.96
2023-03-26T02:15:01.545Z,76.36
2023-03-26T02:17:30.339Z,76.71
2023-03-26T02:19:57.736Z,76.70
2023-03-26T02:22:30.046Z,76.59
2023-03-26T02:24:57.978Z,77.04
2023-03-26T02:27:25.831Z,76.04
2023-03-26T02:29:53.175Z,76.12
2023-03-26T02:32:21.041Z,75.84
2023-03-26T02:34:51.564Z,76.49
2023-03-26T02:37:19.310Z,77.56
2023-03-26T02:39:47.348Z,76.92
2023-03-26T02:42:16.434Z,77.33
2023-03-26T02:44:44.156Z,77.65
2023-03-26T02:47:12.929Z,77.04
2023-03-26T02:49:43.493Z,77.90
2023-03-26T02:52:12.602Z,77.66
2023-03-26T02:54:40.112Z,78.38
2023-03-26T02:57:08.874Z,78.29
2023-03-26T02:59:37.795Z,77.69
2023-03-26T03:02:06.044Z,77.28
2023-03-26T03:04:34.013Z,77.26
2023-03-26T03:07:01.482Z,77.19
2023-03-26T03:09:30.796Z,76.78
2023-03-26T03:12:00.968Z,78.36
2023-03-26T03:14:28.374Z,77.31
2023-03-26T03:16:56.343Z,78.98
2023-03-26T03:19:24.349Z,78.59
2023-03-26T03:21:51.741Z,78.63
2023-03-26T03:24:19.560Z,79.13
2023-03-26T03:26:47.867Z,79.47
2023-03-26T03:29:15.789Z,79.80
2023-03-26T03:31:43.252Z,79.13
2023-03-26T03:34:12.098Z,79.72
2023-03-26T03:36:42.287Z,79.31
2023-03-26T03:39:11.321Z,79.04
2023-03-26T03:41:39.115Z,79.29
2023-03-26T03:44:07.074Z,79.66
2023-03-26T03:46:34.665Z,79.64
2023-03-26T03:49:03.510Z,79.88
2023-03-26T03:51:31.475Z,79.39
2023-03-26T03:53:59.076Z,80.25
2023-03-26T03:56:27.359Z,79.81
2023-03-26T03:58:58.502Z,81.18
2023-03-26T04:01:27.334Z,82.31
2023-03-26T04:03:55.146Z,81.64
2023-03-26T04:06:30.416Z,81.86
2023-03-26T04:08:58.451Z,81.28
2023-03-26T04:11:26.261Z,81.83
2023-03-26T04:13:56.654Z,82.66
2023-03-26T04:16:25.608Z,80.04
2023-03-26T04:18:53.101Z,81.08
2023-03-26T04:21:21.378Z,81.03
2023-03-26T04:23:49.124Z,81.46
2023-03-26T04:26:21.499Z,81.09
2023-03-26T04:28:59.986Z,81.45
2023-03-26T04:31:32.185Z,80.68
2023-03-26T04:34:13.765Z,80.84
2023-03-26T04:36:46.499Z,80.37
2023-03-26T04:39:14.957Z,80.38
2023-03-26T04:41:48.874Z,81.12
2023-03-26T04:44:17.264Z,80.17
2023-03-26T04:46:45.939Z,79.85
2023-03-26T04:49:17.945Z,79.80
2023-03-26T04:51:49.737Z,80.39
2023-03-26T04:54:24.538Z,80.33
2023-03-26T04:56:55.265Z,82.06
2023-03-26T04:59:35.618Z,81.96
2023-03-26T05:02:06.359Z,81.68
2023-03-26T05:04:36.923Z,82.20
2023-03-26T05:07:04.661Z,82.16
2023-03-26T05:09:40.383Z,82.02
2023-03-26T05:12:11.122Z,82.53
2023-03-26T05:14:42.818Z,82.02
2023-03-26T05:17:22.881Z,81.47
2023-03-26T05:19:52.240Z,80.46
2023-03-26T05:22:21.074Z,80.75
2023-03-26T05:24:53.264Z,80.63
2023-03-26T05:27:21.099Z,79.59
2023-03-26T05:29:49.080Z,79.92
2023-03-26T05:32:16.982Z,80.23
2023-03-26T05:34:45.844Z,78.37
2023-03-26T05:37:14.197Z,78.06
2023-03-26T05:39:46.699Z,78.10
2023-03-26T05:42:16.922Z,75.43
2023-03-26T05:44:46.056Z,75.67
2023-03-26T05:47:15.897Z,74.61
2023-03-26T05:49:43.645Z,73.66
2023-03-26T05:52:10.970Z,73.53
2023-03-26T05:54:39.085Z,73.55
2023-03-26T05:57:09.745Z,72.43
2023-03-26T05:59:41.783Z,72.95
2023-03-26T06:02:15.513Z,73.40
2023-03-26T06:04:46.010Z,72.31
2023-03-26T06:07:15.275Z,72.04
2023-03-26T06:10:04.025Z,72.90
2023-03-26T06:12:45.789Z,71.87
2023-03-26T06:15:13.501Z,73.11
2023-03-26T06:17:41.695Z,71.96
2023-03-26T06:20:10.172Z,70.51
2023-03-26T06:22:37.649Z,68.89
2023-03-26T06:25:08.382Z,68.42
2023-03-26T06:27:36.516Z,66.78
2023-03-26T06:30:05.837Z,68.08
2023-03-26T06:32:33.652Z,65.95
2023-03-26T06:35:01.533Z,64.04
2023-03-26T06:37:30.526Z,65.14
2023-03-26T06:39:58.323Z,63.07
2023-03-26T06:43:06.987Z,62.73
2023-03-26T06:45:19.041Z,64.21
2023-03-26T06:47:50.170Z,64.15
2023-03-26T06:50:21.100Z,63.42
2023-03-26T06:52:51.014Z,64.88
2023-03-26T06:55:23.585Z,62.22
2023-03-26T06:57:52.517Z,62.63
2023-03-26T07:00:24.086Z,60.74
2023-03-26T07:03:05.920Z,60.43
2023-03-26T07:05:43.175Z,59.18
2023-03-26T07:08:11.015Z,58.66
2023-03-26T07:10:42.678Z,58.65
2023-03-26T07:13:10.572Z,57.72
2023-03-26T07:15:39.080Z,58.12
2023-03-26T07:18:07.203Z,56.39
2023-03-26T07:20:35.121Z,57.80
2023-03-26T07:23:07.469Z,58.86
2023-03-26T07:25:43.250Z,60.61
2023-03-26T07:28:14.472Z,57.09
2023-03-26T07:30:51.515Z,57.22
2023-03-26T07:33:34.013Z,57.99
2023-03-26T07:36:17.207Z,56.13
2023-03-26T07:39:21.956Z,57.66
2023-03-26T07:42:06.262Z,57.13
2023-03-26T07:44:54.407Z,56.01
2023-03-26T07:47:25.804Z,50.96
2023-03-26T07:49:57.873Z,51.89
2023-03-26T07:52:27.776Z,51.77
2023-03-26T07:54:55.722Z,51.44
2023-03-26T07:57:41.818Z,50.27
2023-03-26T08:00:22.304Z,50.27
2023-03-26T08:03:13.667Z,48.13
2023-03-26T08:06:14.853Z,50.60
2023-03-26T08:08:59.597Z,48.77
2023-03-26T08:11:45.834Z,47.73
2023-03-26T08:14:48.786Z,46.01
2023-03-26T08:17:36.218Z,44.44
2023-03-26T08:20:22.652Z,45.48
2023-03-26T08:22:58.094Z,45.25
2023-03-26T08:25:33.585Z,42.57
2023-03-26T08:28:14.543Z,41.70
2023-03-26T08:30:42.489Z,39.91
2023-03-26T08:33:12.929Z,39.81
2023-03-26T08:35:43.756Z,38.08
2023-03-26T08:38:13.731Z,40.13
2023-03-26T08:41:02.453Z,39.48
2023-03-26T08:43:39.763Z,39.49
2023-03-26T08:46:46.623Z,36.16
2023-03-26T08:49:28.465Z,36.26
2023-03-26T08:52:27.981Z,35.15
2023-03-26T08:55:31.080Z,34.94
2023-03-26T08:58:29.447Z,35.90
2023-03-26T09:01:42.830Z,35.34
2023-03-26T09:04:44.847Z,32.97
2023-03-26T09:07:32.632Z,34.21
2023-03-26T09:10:15.315Z,36.65
2023-03-26T09:12:55.922Z,33.96
2023-03-26T09:15:41.813Z,33.76
2023-03-26T09:18:35.907Z,34.88
2023-03-26T09:21:34.054Z,33.82
2023-03-26T09:24:41.938Z,36.02
2023-03-26T09:27:41.013Z,35.56
2023-03-26T09:30:30.479Z,34.48
2023-03-26T09:33:38.963Z,34.10
2023-03-26T09:36:31.951Z,35.90
2023-03-26T09:39:31.417Z,35.37
2023-03-26T09:45:27.956Z,34.70
2023-03-26T09:48:34.911Z,33.79
2023-03-26T09:51:23.243Z,31.45
2023-03-26T09:54:06.502Z,33.68
2023-03-26T09:56:58.907Z,33.81
2023-03-26T09:59:39.076Z,34.11
2023-03-26T10:02:45.598Z,34.37
2023-03-26T10:05:45.775Z,29.83
2023-03-26T10:08:20.594Z,33.00
2023-03-26T10:10:59.762Z,29.86
2023-03-26T10:13:47.915Z,30.55
2023-03-26T10:16:41.903Z,30.51
2023-03-26T10:20:00.622Z,30.64
2023-03-26T10:22:28.407Z,32.49
2023-03-26T10:24:58.614Z,32.31
2023-03-26T10:27:49.132Z,29.79
2023-03-26T10:30:38.678Z,30.87
2023-03-26T10:33:33.320Z,30.83
2023-03-26T10:36:27.796Z,32.24
2023-03-26T10:39:04.290Z,32.12
2023-03-26T10:42:10.786Z,31.91
2023-03-26T10:44:50.295Z,31.91
2023-03-26T10:47:36.627Z,29.45
2023-03-26T10:50:42.012Z,30.72
2023-03-26T10:53:43.990Z,31.96
2023-03-26T10:56:26.777Z,32.16
2023-03-26T10:58:59.726Z,31.47
2023-03-26T11:01:47.971Z,30.55
2023-03-26T11:04:32.585Z,31.60
2023-03-26T11:07:16.752Z,31.78
2023-03-26T11:09:53.830Z,32.46
2023-03-26T11:12:29.528Z,31.44
2023-03-26T11:15:01.858Z,31.34
2023-03-26T11:17:51.351Z,31.74
2023-03-26T11:20:37.778Z,30.91
2023-03-26T11:23:45.125Z,30.17
2023-03-26T11:26:34.608Z,29.21
2023-03-26T11:29:31.481Z,29.63
2023-03-26T11:32:20.490Z,29.59
2023-03-26T11:35:08.488Z,28.46
2023-03-26T11:37:43.975Z,29.06
2023-03-26T11:40:36.711Z,29.63
2023-03-26T11:43:09.150Z,29.38
2023-03-26T11:45:43.440Z,30.14
2023-03-26T11:48:42.209Z,27.69
2023-03-26T11:51:14.722Z,27.74
2023-03-26T11:53:46.711Z,28.15
2023-03-26T11:56:32.699Z,27.95
2023-03-26T11:59:18.826Z,28.52
2023-03-26T12:01:58.322Z,26.26
2023-03-26T12:04:38.912Z,25.97
2023-03-26T12:07:16.811Z,25.29
2023-03-26T12:09:52.349Z,25.04
2023-03-26T12:12:21.778Z,23.35
2023-03-26T12:14:49.470Z,25.92
2023-03-26T12:17:31.931Z,23.81
2023-03-26T12:20:01.287Z,24.17
2023-03-26T12:22:43.607Z,22.77
2023-03-26T12:25:17.842Z,23.96
2023-03-26T12:27:49.774Z,24.82
2023-03-26T12:30:22.955Z,23.32
2023-03-26T12:32:53.275Z,25.25
2023-03-26T12:35:29.430Z,24.61
2023-03-26T12:38:33.151Z,24.14
2023-03-26T12:44:44.117Z,23.85
2023-03-26T12:44:55.266Z,23.80
2023-03-26T12:48:00.343Z,24.76
2023-03-26T12:50:34.027Z,24.73
2023-03-26T12:53:15.158Z,24.76
2023-03-26T12:56:09.639Z,25.52
2023-03-26T12:58:59.532Z,25.47
2023-03-26T13:01:26.855Z,25.07
2023-03-26T13:03:57.459Z,24.87
2023-03-26T13:07:00.530Z,24.18
2023-03-26T13:09:30.894Z,24.95
2023-03-26T13:12:24.236Z,24.35
2023-03-26T13:15:07.046Z,24.12
2023-03-26T13:17:44.199Z,23.79
2023-03-26T13:20:25.156Z,23.99
2023-03-26T13:23:29.676Z,23.99
2023-03-26T13:26:08.369Z,22.55
2023-03-26T13:28:41.964Z,23.08
2023-03-26T13:31:22.353Z,21.69
2023-03-26T13:34:20.865Z,19.90
2023-03-26T13:37:12.188Z,20.28
2023-03-26T13:40:10.642Z,20.17
2023-03-26T13:42:54.018Z,20.33
2023-03-26T13:45:42.233Z,20.53
2023-03-26T13:48:16.627Z,20.50
2023-03-26T13:50:52.402Z,19.86
2023-03-26T13:53:29.031Z,20.76
2023-03-26T13:56:00.017Z,20.49
2023-03-26T13:58:49.147Z,21.37
2023-03-26T14:01:21.984Z,19.55
2023-03-26T14:04:01.071Z,18.80
2023-03-26T14:07:04.108Z,18.46
2023-03-26T14:09:38.507Z,19.01
2023-03-26T14:12:20.873Z,18.65
2023-03-26T14:15:29.996Z,18.06
2023-03-26T14:18:56.356Z,18.30
2023-03-26T14:21:56.020Z,16.74
2023-03-26T14:24:45.149Z,16.19
2023-03-26T14:27:25.043Z,16.01
2023-03-26T14:30:23.352Z,16.25
2023-03-26T14:33:27.857Z,17.01
2023-03-26T14:36:16.660Z,16.85
2023-03-26T14:39:22.499Z,16.20
2023-03-26T14:41:57.348Z,14.50
2023-03-26T14:44:47.740Z,14.49
2023-03-26T14:47:23.372Z,14.35
2023-03-26T14:50:42.825Z,13.85
2023-03-26T14:53:18.902Z,13.61
2023-03-26T14:56:01.510Z,13.34
2023-03-26T14:59:12.860Z,13.50
2023-03-26T15:01:52.771Z,13.68
2023-03-26T15:04:45.036Z,14.48
2023-03-26T15:07:41.552Z,13.94
2023-03-26T15:11:06.207Z,14.21
2023-03-26T15:14:02.179Z,14.27
2023-03-26T15:16:35.662Z,15.33
2023-03-26T15:19:53.498Z,14.91
2023-03-26T15:23:05.461Z,15.38
2023-03-26T15:25:51.755Z,15.34
2023-03-26T15:28:25.123Z,14.49
2023-03-26T15:31:31.975Z,14.77
2023-03-26T15:34:43.929Z,14.99
2023-03-26T15:37:48.589Z,15.71
2023-03-26T15:40:40.565Z,15.85
2023-03-26T15:43:12.100Z,15.64
2023-03-26T15:45:48.133Z,15.39
2023-03-26T15:48:45.137Z,15.63
2023-03-26T15:51:54.659Z,16.69
2023-03-26T15:55:01.456Z,17.94
2023-03-26T15:57:34.725Z,18.53
2023-03-26T16:00:24.773Z,20.05
2023-03-26T16:03:10.843Z,21.36
2023-03-26T16:06:09.123Z,22.59
2023-03-26T16:09:00.681Z,22.34
2023-03-26T16:11:58.448Z,22.46
2023-03-26T16:14:35.280Z,23.49
2023-03-26T16:17:06.667Z,23.70
2023-03-26T16:19:46.296Z,23.76
2023-03-26T16:22:42.781Z,24.85
2023-03-26T16:25:27.281Z,24.84
2023-03-26T16:28:28.823Z,25.13
2023-03-26T16:31:10.797Z,25.66
2023-03-26T16:34:06.010Z,25.29
2023-03-26T16:36:35.948Z,26.29
2023-03-26T16:39:06.465Z,27.10
2023-03-26T16:41:40.242Z,27.12
2023-03-26T16:44:29.111Z,28.08
2023-03-26T16:47:25.163Z,27.73
2023-03-26T16:50:42.897Z,27.88
2023-03-26T16:53:34.403Z,29.89
2023-03-26T16:56:39.188Z,30.25
2023-03-26T16:59:17.126Z,30.72
2023-03-26T17:01:56.319Z,31.12
2023-03-26T17:04:30.562Z,31.69
2023-03-26T17:07:17.959Z,31.38
2023-03-26T17:10:13.301Z,33.38
2023-03-26T17:12:48.342Z,32.88
2023-03-26T17:15:33.908Z,33.18
2023-03-26T17:18:07.563Z,34.15
2023-03-26T17:20:49.447Z,33.66
2023-03-26T17:23:52.161Z,33.77
2023-03-26T17:26:31.477Z,34.88
2023-03-26T17:29:11.591Z,35.49
2023-03-26T17:31:51.307Z,35.49
2023-03-26T17:34:47.339Z,36.06
2023-03-26T17:37:19.010Z,36.80
2023-03-26T17:39:47.127Z,36.91
2023-03-26T17:42:30.934Z,38.14
2023-03-26T17:44:59.792Z,38.50
2023-03-26T17:47:34.979Z,38.35
2023-03-26T17:50:11.069Z,39.18
2023-03-26T17:52:39.005Z,38.71
2023-03-26T17:55:10.308Z,39.22
2023-03-26T17:57:44.593Z,38.89
2023-03-26T18:00:20.997Z,38.90
2023-03-26T18:03:03.293Z,38.11
2023-03-26T18:05:31.436Z,38.28
2023-03-26T18:08:13.557Z,38.99
2023-03-26T18:11:02.851Z,38.77
2023-03-26T18:13:37.477Z,39.68
2023-03-26T18:16:16.591Z,40.01
2023-03-26T18:18:53.854Z,40.13
2023-03-26T18:21:40.295Z,40.42
2023-03-26T18:24:14.344Z,40.42
2023-03-26T18:26:52.286Z,41.25
2023-03-26T18:29:30.960Z,40.64
2023-03-26T18:32:11.798Z,40.95
2023-03-26T18:34:47.053Z,40.93
2023-03-26T18:37:22.740Z,43.04
2023-03-26T18:39:58.215Z,42.44
2023-03-26T18:42:27.238Z,42.35
2023-03-26T18:44:59.742Z,42.48
2023-03-26T18:47:30.282Z,42.55
2023-03-26T18:49:58.678Z,44.02
2023-03-26T18:52:29.527Z,45.16
2023-03-26T18:54:59.373Z,45.47
2023-03-26T18:57:29.205Z,45.49
2023-03-26T19:00:15.807Z,45.08
2023-03-26T19:02:46.304Z,45.34
2023-03-26T19:05:19.783Z,45.20
2023-03-26T19:07:47.918Z,44.82
2023-03-26T19:10:21.488Z,44.91
2023-03-26T19:13:01.489Z,44.47
2023-03-26T19:15:32.803Z,45.38
2023-03-26T19:18:10.047Z,46.30
2023-03-26T19:20:43.754Z,46.73
2023-03-26T19:23:21.387Z,46.79
2023-03-26T19:25:52.194Z,46.95
2023-03-26T19:28:23.903Z,46.02
2023-03-26T19:31:28.183Z,47.00
2023-03-26T19:33:59.474Z,46.40
2023-03-26T19:36:30.663Z,48.18
2023-03-26T19:39:02.252Z,47.32
2023-03-26T19:41:36.918Z,48.32
2023-03-26T19:44:28.249Z,49.38
2023-03-26T19:47:05.708Z,49.96
2023-03-26T19:49:47.752Z,49.98
2023-03-26T19:52:20.365Z,48.18
2023-03-26T19:55:37.270Z,47.37
2023-03-26T19:58:06.094Z,49.54
2023-03-26T20:00:34.219Z,48.13
2023-03-26T20:03:03.483Z,48.84
2023-03-26T20:05:34.220Z,49.42
2023-03-26T20:08:13.206Z,49.94
2023-03-26T20:10:41.010Z,50.45
2023-03-26T20:13:16.158Z,51.11
2023-03-26T20:15:48.202Z,50.70
2023-03-26T20:18:34.177Z,49.25
2023-03-26T20:21:01.857Z,50.44
2023-03-26T20:23:29.273Z,51.28
2023-03-26T20:25:57.426Z,52.05
2023-03-26T20:28:25.031Z,53.17
2023-03-26T20:30:54.653Z,53.00
2023-03-26T20:33:27.229Z,53.89
2023-03-26T20:35:57.003Z,52.98
2023-03-26T20:38:39.090Z,53.94
2023-03-26T20:41:12.582Z,53.68
2023-03-26T20:43:41.067Z,53.64
2023-03-26T20:46:17.533Z,54.00
2023-03-26T20:48:47.011Z,56.22
2023-03-26T20:51:15.730Z,55.06
2023-03-26T20:53:44.291Z,54.65
2023-03-26T20:56:15.655Z,54.42
2023-03-26T20:58:45.474Z,53.01
2023-03-26T21:01:14.467Z,54.12
2023-03-26T21:03:42.321Z,55.44
2023-03-26T21:06:15.548Z,55.19
2023-03-26T21:08:44.900Z,55.08
2023-03-26T21:11:39.462Z,54.40
2023-03-26T21:14:15.877Z,56.06
2023-03-26T21:16:43.664Z,55.69
2023-03-26T21:19:11.864Z,56.08
2023-03-26T21:22:01.107Z,55.79
2023-03-26T21:24:42.264Z,56.84
2023-03-26T21:27:37.436Z,57.62
2023-03-26T21:30:16.597Z,57.51
2023-03-26T21:32:45.650Z,56.99
2023-03-26T21:35:15.022Z,57.16
2023-03-26T21:37:43.395Z,57.31
2023-03-26T21:40:16.512Z,56.33
2023-03-26T21:42:50.107Z,56.44
2023-03-26T21:45:18.313Z,57.26
2023-03-26T21:47:46.620Z,57.16
2023-03-26T21:50:17.147Z,57.57
2023-03-26T21:52:51.040Z,57.60
2023-03-26T21:55:24.095Z,58.03
2023-03-26T21:58:27.336Z,58.00
2023-03-26T22:01:16.908Z,58.31
2023-03-26T22:04:02.255Z,57.46
2023-03-26T22:06:37.248Z,58.07
2023-03-26T22:09:05.325Z,58.00
2023-03-26T22:11:33.054Z,58.58
2023-03-26T22:14:01.639Z,58.38
2023-03-26T22:16:29.686Z,58.86
2023-03-26T22:18:57.252Z,58.36
2023-03-26T22:21:25.405Z,60.30
2023-03-26T22:23:53.331Z,60.00
2023-03-26T22:26:23.321Z,59.58
2023-03-26T22:28:51.245Z,59.88
2023-03-26T22:31:19.570Z,62.41
2023-03-26T22:33:47.391Z,61.36
2023-03-26T22:36:22.333Z,59.95
2023-03-26T22:38:54.059Z,61.46
2023-03-26T22:41:23.119Z,60.79
2023-03-26T22:43:54.877Z,60.14
2023-03-26T22:46:23.898Z,60.50
2023-03-26T22:48:51.651Z,60.86
2023-03-26T22:51:19.000Z,61.22
2023-03-26T22:53:46.754Z,61.03
2023-03-26T22:56:15.550Z,62.00
2023-03-26T22:58:43.076Z,61.73
2023-03-26T23:01:15.080Z,60.20
2023-03-26T23:03:43.164Z,61.13
2023-03-26T23:06:12.314Z,60.70
2023-03-26T23:08:40.268Z,60.31
2023-03-26T23:11:13.721Z,62.10
2023-03-26T23:13:43.098Z,62.35
2023-03-26T23:16:11.988Z,61.54
2023-03-26T23:18:39.852Z,62.60
2023-03-26T23:21:14.496Z,63.99
2023-03-26T23:23:42.366Z,64.27
2023-03-26T23:26:11.068Z,63.70
2023-03-26T23:28:38.895Z,63.45
2023-03-26T23:31:09.190Z,63.77
2023-03-26T23:33:46.554Z,64.60
2023-03-26T23:36:18.345Z,65.64
2023-03-26T23:38:48.242Z,64.61
2023-03-26T23:41:16.788Z,64.73
2023-03-26T23:43:53.585Z,64.62
2023-03-26T23:46:30.828Z,65.02
2023-03-26T23:49:05.235Z,64.25
2023-03-26T23:51:33.850Z,64.43
2023-03-26T23:54:01.675Z,65.05
2023-03-26T23:56:30.199Z,64.19
2023-03-26T23:58:59.397Z,64.12
